Time;durP1;ratioP1;P1;durP2;ratioP2;P2;SDS_P1;SDS_P2;PMS_P1;PMS_P2;Temp;Humidity;BMP_temperature;BMP_pressure;BME280_temperature;BME280_humidity;BME280_pressure;Samples;Min_cycle;Max_cycle;Signal;HPM_P1;HPM_P2
2024/01/27 00:00:09;;;;;;;24.13;4.70;;;;;;;;;;4964981;28;20094;-62
2024/01/27 00:02:35;;;;;;;17.38;3.95;;;;;;;;;;4968149;28;20474;-61
2024/01/27 00:05:01;;;;;;;27.00;5.68;;;;;;;;;;4970916;28;20047;-62
2024/01/27 00:07:28;;;;;;;18.30;4.75;;;;;;;;;;4968492;28;20042;-62
2024/01/27 00:09:54;;;;;;;17.35;4.28;;;;;;;;;;4967811;28;20052;-61
2024/01/27 00:12:20;;;;;;;22.05;4.38;;;5.10;14.00;;;;;;4964098;28;20161;-62
2024/01/27 00:14:46;;;;;;;21.83;3.55;;;;;;;;;;4971421;28;20121;-62
2024/01/27 00:17:12;;;;;;;22.70;5.00;;;;;;;;;;4970673;28;20042;-62
2024/01/27 00:19:38;;;;;;;19.13;4.70;;;;;;;;;;4971419;28;20045;-63
2024/01/27 00:22:04;;;;;;;18.92;5.22;;;;;;;;;;4970323;28;20412;-63
2024/01/27 00:24:30;;;;;;;18.75;5.43;;;;;;;;;;4974826;28;20132;-62
2024/01/27 00:26:56;;;;;;;19.10;4.78;;;;;;;;;;4969754;28;20106;-62
2024/01/27 00:29:22;;;;;;;25.13;5.00;;;;;;;;;;4971446;28;20045;-62
2024/01/27 00:31:50;;;;;;;20.55;4.60;;;;;;;;;;4970574;28;20050;-62
2024/01/27 00:34:17;;;;;;;20.95;4.78;;;;;;;;;;4970504;28;20152;-62
2024/01/27 00:36:48;;;;;;;21.27;4.13;;;;;;;;;;4970410;28;20042;-62
2024/01/27 00:39:18;;;;;;;15.40;3.42;;;4.20;50.50;;;;;;4965780;28;20490;-62
2024/01/27 00:41:44;;;;;;;18.25;4.50;;;4.80;46.40;;;;;;4969993;28;20051;-63
2024/01/27 00:44:10;;;;;;;22.65;4.22;;;4.90;48.80;;;;;;4970059;28;20046;-62
2024/01/27 00:46:39;;;;;;;19.92;4.68;;;5.10;43.50;;;;;;4967813;28;20055;-62
2024/01/27 00:49:04;;;;;;;19.23;6.20;;;5.00;45.00;;;;;;4969966;28;20513;-62
2024/01/27 00:51:31;;;;;;;22.65;4.32;;;;;;;;;;4969084;28;20042;-62
2024/01/27 00:53:57;;;;;;;16.15;4.28;;;;;;;;;;4970335;28;20136;-62
2024/01/27 00:56:23;;;;;;;26.70;4.18;;;;;;;;;;4969269;28;20043;-62
2024/01/27 00:58:49;;;;;;;22.52;4.95;;;;;;;;;;4965439;28;20533;-62
2024/01/27 01:01:15;;;;;;;19.88;4.63;;;;;;;;;;4963021;28;20055;-62
2024/01/27 01:03:41;;;;;;;21.55;3.78;;;;;;;;;;4969903;28;20093;-62
2024/01/27 01:06:07;;;;;;;18.73;3.47;;;;;;;;;;4969744;28;20499;-62
2024/01/27 01:08:33;;;;;;;23.20;4.57;;;;;;;;;;4970063;28;20034;-62
2024/01/27 01:10:58;;;;;;;21.92;4.05;;;5.00;20.40;;;;;;4969199;28;20093;-62
2024/01/27 01:13:24;;;;;;;18.30;3.78;;;4.90;21.50;;;;;;4968226;28;20062;-62
2024/01/27 01:15:50;;;;;;;16.42;4.80;;;;;;;;;;4970161;28;20098;-62
2024/01/27 01:18:16;;;;;;;15.50;4.20;;;;;;;;;;4969442;28;20153;-62
2024/01/27 01:20:42;;;;;;;17.15;3.80;;;;;;;;;;4969995;28;20050;-62
2024/01/27 01:23:08;;;;;;;20.17;4.07;;;;;;;;;;4968492;28;20039;-62
2024/01/27 01:25:35;;;;;;;19.08;4.60;;;;;;;;;;4969534;28;20468;-62
2024/01/27 01:28:01;;;;;;;20.48;4.15;;;;;;;;;;4969658;28;20081;-62
2024/01/27 01:30:27;;;;;;;21.88;4.18;;;;;;;;;;4969636;28;20042;-62
2024/01/27 01:32:53;;;;;;;21.27;5.57;;;4.40;82.00;;;;;;4967633;28;20034;-62
2024/01/27 01:35:18;;;;;;;18.65;6.50;;;4.60;90.00;;;;;;4966489;28;20049;-62
2024/01/27 01:37:44;;;;;;;18.85;3.53;;;4.50;91.00;;;;;;4969920;28;20034;-62
2024/01/27 01:40:10;;;;;;;19.73;4.20;;;;;;;;;;4968431;28;20039;-62
2024/01/27 01:42:36;;;;;;;19.60;4.57;;;;;;;;;;4969690;28;20158;-62
2024/01/27 01:45:02;;;;;;;17.02;3.75;;;;;;;;;;4969529;28;20078;-61
2024/01/27 01:47:28;;;;;;;21.63;4.85;;;;;;;;;;4969336;28;20053;-62
2024/01/27 01:49:55;;;;;;;23.48;4.57;;;;;;;;;;4964178;28;20102;-62
2024/01/27 01:52:21;;;;;;;17.88;4.22;;;;;;;;;;4964489;28;20112;-62
2024/01/27 01:54:51;;;;;;;20.10;4.03;;;;;;;;;;4966345;28;20039;-62
2024/01/27 01:57:17;;;;;;;15.30;4.22;;;;;;;;;;4969601;28;20043;-62
2024/01/27 01:59:43;;;;;;;20.13;3.60;;;;;;;;;;4969265;28;20058;-63
2024/01/27 02:02:12;;;;;;;18.25;6.13;;;4.30;99.90;;;;;;4968398;28;20042;-62
2024/01/27 02:04:45;;;;;;;20.67;3.50;;;;;;;;;;4962944;28;20047;-62
2024/01/27 02:07:11;;;;;;;15.25;3.78;;;4.60;99.90;;;;;;4966819;28;20050;-62
2024/01/27 02:09:37;;;;;;;18.98;4.22;;;;;;;;;;4955816;28;20050;-62
2024/01/27 02:12:04;;;;;;;23.80;4.15;;;;;;;;;;4966701;28;20122;-62
2024/01/27 02:14:30;;;;;;;16.73;3.50;;;;;;;;;;4968392;28;20039;-62
2024/01/27 02:16:56;;;;;;;18.77;3.75;;;;;;;;;;4968835;28;20141;-62
2024/01/27 02:19:22;;;;;;;20.38;6.07;;;;;;;;;;4968274;28;20056;-62
2024/01/27 02:21:48;;;;;;;16.30;3.90;;;;;;;;;;4966311;28;20529;-62
2024/01/27 02:24:14;;;;;;;15.13;3.83;;;4.40;99.90;;;;;;4971382;28;20042;-62
2024/01/27 02:26:40;;;;;;;17.38;3.35;;;;;;;;;;4969305;28;20127;-61
2024/01/27 02:29:06;;;;;;;19.45;5.35;;;4.10;99.90;;;;;;4968639;28;20041;-60
2024/01/27 02:31:32;;;;;;;18.23;3.92;;;;;;;;;;4965546;28;20538;-62
2024/01/27 02:33:58;;;;;;;24.73;4.10;;;;;;;;;;4968882;28;20220;-61
2024/01/27 02:36:23;;;;;;;18.85;3.92;;;4.10;99.90;;;;;;4967499;28;20118;-62
2024/01/27 02:38:49;;;;;;;19.33;5.03;;;;;;;;;;4968471;28;20069;-61
2024/01/27 02:41:15;;;;;;;17.15;3.95;;;4.00;99.90;;;;;;4967856;28;20050;-62
2024/01/27 02:43:41;;;;;;;16.98;3.95;;;;;;;;;;4968781;28;20043;-62
2024/01/27 02:46:10;;;;;;;21.23;4.00;;;;;;;;;;4971843;28;20039;-62
2024/01/27 02:48:36;;;;;;;19.40;4.40;;;;;;;;;;4965926;28;20096;-62
2024/01/27 02:51:03;;;;;;;21.20;4.55;;;4.00;99.90;;;;;;4970095;28;20081;-62
2024/01/27 02:53:30;;;;;;;18.23;4.18;;;;;;;;;;4962427;28;20466;-62
2024/01/27 02:55:56;;;;;;;25.65;5.22;;;;;;;;;;4970233;28;20130;-62
2024/01/27 02:58:22;;;;;;;26.60;4.57;;;;;;;;;;4966687;28;20526;-61
2024/01/27 03:00:48;;;;;;;21.90;4.30;;;;;;;;;;4964088;28;20806;-61
2024/01/27 03:03:15;;;;;;;22.05;4.32;;;;;;;;;;4967323;28;20161;-61
2024/01/27 03:05:41;;;;;;;16.42;3.67;;;;;;;;;;4967483;28;20050;-61
2024/01/27 03:08:07;;;;;;;25.67;5.35;;;;;;;;;;4967256;28;20065;-62
2024/01/27 03:10:33;;;;;;;17.98;4.30;;;;;;;;;;4965288;28;20178;-61
2024/01/27 03:12:59;;;;;;;17.20;4.13;;;;;;;;;;4969199;28;20035;-61
2024/01/27 03:15:25;;;;;;;38.97;5.10;;;;;;;;;;4967917;28;20030;-61
2024/01/27 03:17:51;;;;;;;16.25;4.70;;;;;;;;;;4969707;28;20043;-62
2024/01/27 03:20:17;;;;;;;22.75;4.63;;;;;;;;;;4971100;28;20038;-61
2024/01/27 03:22:43;;;;;;;17.52;4.05;;;;;;;;;;4971254;28;20039;-61
2024/01/27 03:25:13;;;;;;;18.85;4.75;;;;;;;;;;4972889;28;20039;-61
2024/01/27 03:27:39;;;;;;;19.85;4.68;;;;;;;;;;4971064;28;20079;-61
2024/01/27 03:30:06;;;;;;;24.30;6.15;;;4.30;99.90;;;;;;4971755;28;20069;-62
2024/01/27 03:32:32;;;;;;;19.52;5.47;;;;;;;;;;4971154;28;20454;-62
2024/01/27 03:34:59;;;;;;;22.25;4.78;;;;;;;;;;4970261;28;20046;-62
2024/01/27 03:37:25;;;;;;;20.45;6.80;;;4.40;99.90;;;;;;4970426;28;20430;-61
2024/01/27 03:39:51;;;;;;;23.50;3.92;;;;;;;;;;4970838;28;20053;-62
2024/01/27 03:42:17;;;;;;;17.90;4.00;;;;;;;;;;4969974;28;20054;-61
2024/01/27 03:44:43;;;;;;;23.17;4.30;;;;;;;;;;4971936;28;20096;-62
2024/01/27 03:47:09;;;;;;;18.30;3.50;;;;;;;;;;4971636;28;20051;-62
2024/01/27 03:49:35;;;;;;;19.75;3.97;;;;;;;;;;4970327;28;20069;-62
2024/01/27 03:52:01;;;;;;;26.20;4.60;;;;;;;;;;4970488;28;20038;-62
2024/01/27 03:54:27;;;;;;;21.42;4.70;;;;;;;;;;4971321;28;20035;-62
2024/01/27 03:56:55;;;;;;;12.93;3.58;;;;;;;;;;4970374;28;20035;-61
2024/01/27 03:59:21;;;;;;;25.13;4.90;;;;;;;;;;4971268;28;20075;-62
2024/01/27 04:01:47;;;;;;;15.73;3.25;;;;;;;;;;4970882;28;20682;-61
2024/01/27 04:04:14;;;;;;;16.08;4.15;;;;;;;;;;4971681;28;20481;-61
2024/01/27 04:06:40;;;;;;;13.10;4.50;;;;;;;;;;4970311;28;20050;-61
2024/01/27 04:09:09;;;;;;;20.60;4.25;;;;;;;;;;4969023;28;20413;-61
2024/01/27 04:11:36;;;;;;;26.42;5.10;;;;;;;;;;4967085;28;20039;-62
2024/01/27 04:14:03;;;;;;;21.35;4.68;;;;;;;;;;4968832;28;20626;-60
2024/01/27 04:16:29;;;;;;;20.33;4.88;;;;;;;;;;4969295;28;20038;-62
2024/01/27 04:18:55;;;;;;;20.02;4.38;;;;;;;;;;4968979;28;20520;-61
2024/01/27 04:21:21;;;;;;;19.67;5.70;;;;;;;;;;4964950;28;20069;-61
2024/01/27 04:23:47;;;;;;;20.33;4.38;;;;;;;;;;4966473;28;20062;-61
2024/01/27 04:26:13;;;;;;;20.40;4.43;;;;;;;;;;4968442;28;20506;-62
2024/01/27 04:28:39;;;;;;;21.65;4.30;;;;;;;;;;4968318;28;20049;-60
2024/01/27 04:31:05;;;;;;;15.00;3.35;;;;;;;;;;4969329;28;20042;-61
2024/01/27 04:33:32;;;;;;;17.92;3.95;;;;;;;;;;4964455;28;20057;-62
2024/01/27 04:35:58;;;;;;;19.38;5.05;;;;;;;;;;4966797;28;20039;-62
2024/01/27 04:38:24;;;;;;;23.67;4.22;;;;;;;;;;4966303;28;20098;-60
2024/01/27 04:40:51;;;;;;;18.13;3.38;;;;;;;;;;4968741;28;20046;-62
2024/01/27 04:43:18;;;;;;;18.70;4.35;;;3.50;99.90;;;;;;4967181;28;20089;-62
2024/01/27 04:45:44;;;;;;;22.25;4.35;;;3.10;99.90;;;;;;4968993;28;20074;-62
2024/01/27 04:48:10;;;;;;;17.85;3.53;;;;;;;;;;4969976;28;20082;-60
2024/01/27 04:50:35;;;;;;;17.27;3.60;;;3.00;99.90;;;;;;4968345;28;20577;-61
2024/01/27 04:53:01;;;;;;;22.80;3.88;;;;;;;;;;4969943;28;20041;-62
2024/01/27 04:55:28;;;;;;;19.17;4.00;;;;;;;;;;4967341;28;20510;-62
2024/01/27 04:57:54;;;;;;;25.42;5.78;;;;;;;;;;4968173;28;20034;-62
2024/01/27 05:00:20;;;;;;;19.27;4.63;;;;;;;;;;4968958;28;20039;-61
2024/01/27 05:02:46;;;;;;;18.42;4.90;;;;;;;;;;4962230;28;20045;-61
2024/01/27 05:05:12;;;;;;;18.73;3.80;;;;;;;;;;4967843;28;20042;-63
2024/01/27 05:07:38;;;;;;;23.45;4.75;;;3.00;99.90;;;;;;4969979;28;20047;-62
2024/01/27 05:10:05;;;;;;;14.77;3.63;;;3.50;99.90;;;;;;4967559;28;20038;-62
2024/01/27 05:12:31;;;;;;;16.08;5.03;;;;;;;;;;4969740;28;20062;-62
2024/01/27 05:14:57;;;;;;;18.42;4.03;;;;;;;;;;4970323;28;20039;-62
2024/01/27 05:17:23;;;;;;;16.13;3.35;;;;;;;;;;4969880;28;20129;-62
2024/01/27 05:19:51;;;;;;;18.05;4.00;;;;;;;;;;4970027;28;20070;-61
2024/01/27 05:22:17;;;;;;;26.15;4.43;;;;;;;;;;4969845;28;20046;-62
2024/01/27 05:24:43;;;;;;;22.52;3.80;;;;;;;;;;4970118;28;20402;-62
2024/01/27 05:27:09;;;;;;;21.00;4.68;;;;;;;;;;4969461;28;20109;-62
2024/01/27 05:29:37;;;;;;;18.85;4.30;;;;;;;;;;4969159;28;20105;-61
2024/01/27 05:32:03;;;;;;;16.20;3.63;;;;;;;;;;4968075;28;21538;-62
2024/01/27 05:34:29;;;;;;;22.60;4.28;;;;;;;;;;4970587;28;20058;-62
2024/01/27 05:36:55;;;;;;;18.38;3.88;;;;;;;;;;4954784;28;20042;-61
2024/01/27 05:39:21;;;;;;;22.67;4.20;;;;;;;;;;4970258;28;20126;-61
2024/01/27 05:41:47;;;;;;;19.30;3.78;;;;;;;;;;4968963;28;20562;-62
2024/01/27 05:44:13;;;;;;;17.45;4.07;;;;;;;;;;4967869;28;20046;-61
2024/01/27 05:46:39;;;;;;;19.38;3.92;;;;;;;;;;4969124;28;20069;-61
2024/01/27 05:49:05;;;;;;;17.60;3.28;;;;;;;;;;4969704;28;20038;-61
2024/01/27 05:51:31;;;;;;;13.25;4.18;;;;;;;;;;4968119;28;20046;-61
2024/01/27 05:53:57;;;;;;;27.60;5.63;;;;;;;;;;4952071;28;20054;-62
2024/01/27 05:56:23;;;;;;;17.60;3.75;;;3.30;99.90;;;;;;4969531;28;20093;-61
2024/01/27 05:58:49;;;;;;;24.60;5.78;;;;;;;;;;4967969;28;20051;-61
2024/01/27 06:01:16;;;;;;;16.50;4.60;;;;;;;;;;4967323;28;20081;-61
2024/01/27 06:03:42;;;;;;;20.45;3.97;;;;;;;;;;4964359;28;20051;-61
2024/01/27 06:06:08;;;;;;;25.67;4.97;;;3.30;99.90;;;;;;4969207;28;20050;-61
2024/01/27 06:08:34;;;;;;;15.95;4.10;;;;;;;;;;4969155;28;20359;-61
2024/01/27 06:11:00;;;;;;;18.90;3.63;;;;;;;;;;4965475;28;20046;-61
2024/01/27 06:13:26;;;;;;;20.67;4.40;;;;;;;;;;4960523;28;20035;-61
2024/01/27 06:15:52;;;;;;;17.85;3.55;;;3.30;99.90;;;;;;4966641;28;20035;-61
2024/01/27 06:18:18;;;;;;;19.17;4.80;;;;;;;;;;4970053;28;20070;-62
2024/01/27 06:20:44;;;;;;;25.13;4.45;;;2.90;99.90;;;;;;4965628;28;20487;-62
2024/01/27 06:23:10;;;;;;;18.88;5.10;;;;;;;;;;4964828;28;20086;-63
2024/01/27 06:25:36;;;;;;;19.58;4.47;;;;;;;;;;4967401;28;20206;-62
2024/01/27 06:28:02;;;;;;;17.85;4.00;;;;;;;;;;4970636;28;20125;-62
2024/01/27 06:30:28;;;;;;;14.45;2.92;;;;;;;;;;4971500;28;20099;-62
2024/01/27 06:32:54;;;;;;;18.88;4.28;;;;;;;;;;4966715;28;20470;-62
2024/01/27 06:35:20;;;;;;;22.65;3.95;;;;;;;;;;4971904;28;20106;-62
2024/01/27 06:37:46;;;;;;;30.40;4.47;;;3.30;99.90;;;;;;4970655;28;20121;-62
2024/01/27 06:40:12;;;;;;;16.00;3.65;;;;;;;;;;4972244;28;20121;-62
2024/01/27 06:42:38;;;;;;;18.52;4.40;;;3.40;99.90;;;;;;4971733;28;20045;-62
2024/01/27 06:45:04;;;;;;;16.58;4.43;;;3.20;99.90;;;;;;4972051;28;20511;-62
2024/01/27 06:47:30;;;;;;;20.10;5.50;;;;;;;;;;4971136;28;20171;-61
2024/01/27 06:49:56;;;;;;;14.82;4.00;;;;;;;;;;4970320;28;20047;-62
2024/01/27 06:52:22;;;;;;;18.13;4.45;;;;;;;;;;4964814;28;20443;-62
2024/01/27 06:54:48;;;;;;;12.85;3.78;;;;;;;;;;4971890;28;20038;-62
2024/01/27 06:57:21;;;;;;;15.38;4.95;;;;;;;;;;4969587;28;20067;-62
2024/01/27 06:59:52;;;;;;;21.63;5.38;;;;;;;;;;4967703;28;20066;-61
2024/01/27 07:02:18;;;;;;;18.65;5.38;;;;;;;;;;4971803;28;20035;-62
2024/01/27 07:04:44;;;;;;;23.42;3.90;;;;;;;;;;4971274;28;20062;-62
2024/01/27 07:07:10;;;;;;;19.83;3.83;;;;;;;;;;4968900;28;20047;-62
2024/01/27 07:09:36;;;;;;;21.45;4.10;;;;;;;;;;4969357;28;20037;-61
2024/01/27 07:12:02;;;;;;;15.77;3.63;;;;;;;;;;4968295;28;20415;-61
2024/01/27 07:14:28;;;;;;;23.70;3.72;;;;;;;;;;4969140;28;20462;-62
2024/01/27 07:16:54;;;;;;;15.40;4.22;;;;;;;;;;4951085;28;20039;-61
2024/01/27 07:19:20;;;;;;;15.02;3.92;;;;;;;;;;4967786;28;20090;-61
2024/01/27 07:21:46;;;;;;;16.65;4.00;;;;;;;;;;4965616;28;20347;-62
2024/01/27 07:24:12;;;;;;;25.65;5.50;;;;;;;;;;4964654;28;20077;-62
2024/01/27 07:26:38;;;;;;;17.05;4.43;;;;;;;;;;4960731;28;20043;-62
2024/01/27 07:29:04;;;;;;;22.80;4.57;;;;;;;;;;4965820;28;20049;-62
2024/01/27 07:31:31;;;;;;;15.32;3.60;;;;;;;;;;4950179;28;20057;-61
2024/01/27 07:33:56;;;;;;;23.40;5.03;;;3.30;99.90;;;;;;4970118;28;20137;-61
2024/01/27 07:36:22;;;;;;;15.90;4.00;;;;;;;;;;4970599;28;20440;-62
2024/01/27 07:38:48;;;;;;;18.30;5.05;;;3.30;99.90;;;;;;4971071;28;20038;-62
2024/01/27 07:41:14;;;;;;;20.38;4.10;;;;;;;;;;4969349;28;20038;-62
2024/01/27 07:43:40;;;;;;;18.70;3.80;;;;;;;;;;4971180;28;20474;-62
2024/01/27 07:46:06;;;;;;;19.00;4.22;;;;;;;;;;4970536;28;20043;-62
2024/01/27 07:48:32;;;;;;;16.83;5.53;;;;;;;;;;4961397;28;20042;-62
2024/01/27 07:50:59;;;;;;;17.35;3.80;;;;;;;;;;4964372;28;20306;-62
2024/01/27 07:53:26;;;;;;;17.35;4.53;;;;;;;;;;4967586;28;20047;-62
2024/01/27 07:55:53;;;;;;;19.33;5.05;;;3.60;99.90;;;;;;4969589;28;20057;-62
2024/01/27 07:58:19;;;;;;;20.90;4.30;;;;;;;;;;4967391;28;20530;-62
2024/01/27 08:00:45;;;;;;;16.52;3.80;;;;;;;;;;4960398;28;20047;-61
2024/01/27 08:03:11;;;;;;;16.98;3.83;;;;;;;;;;4962851;28;20042;-62
2024/01/27 08:05:37;;;;;;;16.80;4.38;;;;;;;;;;4964243;28;20053;-61
2024/01/27 08:08:04;;;;;;;19.75;3.88;;;;;;;;;;4966245;28;20046;-62
2024/01/27 08:10:30;;;;;;;17.73;3.90;;;;;;;;;;4965212;28;20423;-61
2024/01/27 08:12:56;;;;;;;18.90;6.00;;;;;;;;;;4957905;28;20039;-61
2024/01/27 08:15:22;;;;;;;22.33;4.78;;;;;;;;;;4968570;28;20038;-62
2024/01/27 08:17:48;;;;;;;18.92;4.57;;;;;;;;;;4968302;28;20065;-61
2024/01/27 08:20:14;;;;;;;17.75;3.90;;;;;;;;;;4966795;28;20166;-62
2024/01/27 08:22:40;;;;;;;18.02;5.60;;;;;;;;;;4961903;28;20039;-61
2024/01/27 08:25:07;;;;;;;18.65;4.47;;;;;;;;;;4968108;28;20039;-61
2024/01/27 08:27:33;;;;;;;21.30;4.38;;;;;;;;;;4969631;28;20034;-62
2024/01/27 08:29:59;;;;;;;20.58;4.25;;;;;;;;;;4968956;28;20186;-61
2024/01/27 08:32:25;;;;;;;18.40;4.63;;;;;;;;;;4967593;28;20117;-62
2024/01/27 08:34:51;;;;;;;18.23;3.90;;;;;;;;;;4962700;28;20031;-61
2024/01/27 08:37:20;;;;;;;16.85;4.38;;;;;;;;;;4966935;28;20499;-62
2024/01/27 08:39:46;;;;;;;12.50;4.00;;;;;;;;;;4966337;28;20189;-62
2024/01/27 08:42:12;;;;;;;20.70;4.97;;;;;;;;;;4967502;28;20045;-61
2024/01/27 08:44:39;;;;;;;20.17;4.45;;;;;;;;;;4969154;28;20141;-62
2024/01/27 08:47:06;;;;;;;18.17;5.32;;;3.70;99.90;;;;;;4968896;28;20458;-62
2024/01/27 08:49:32;;;;;;;22.83;4.40;;;;;;;;;;4969125;28;20035;-62
2024/01/27 08:51:58;;;;;;;17.40;4.00;;;4.10;99.90;;;;;;4962683;28;20465;-61
2024/01/27 08:54:24;;;;;;;20.35;5.22;;;;;;;;;;4970661;28;20035;-62
2024/01/27 08:56:50;;;;;;;16.35;4.85;;;;;;;;;;4968965;28;20130;-62
2024/01/27 08:59:16;;;;;;;20.00;5.45;;;;;;;;;;4953205;28;20493;-62
2024/01/27 09:01:42;;;;;;;18.52;5.25;;;;;;;;;;4968761;28;20049;-62
2024/01/27 09:04:09;;;;;;;26.88;5.78;;;;;;;;;;4969291;28;20030;-62
2024/01/27 09:06:35;;;;;;;18.45;4.95;;;;;;;;;;4968048;28;20109;-62
2024/01/27 09:09:01;;;;;;;17.80;5.03;;;;;;;;;;4969341;28;20043;-62
2024/01/27 09:11:30;;;;;;;18.15;4.63;;;;;;;;;;4969432;28;20034;-62
2024/01/27 09:13:56;;;;;;;18.83;5.80;;;;;;;;;;4967971;28;20043;-62
2024/01/27 09:16:23;;;;;;;22.45;5.20;;;;;;;;;;4968500;28;20094;-62
2024/01/27 09:18:50;;;;;;;21.50;5.50;;;;;;;;;;4969841;28;20042;-62
2024/01/27 09:21:20;;;;;;;20.60;6.47;;;;;;;;;;4969761;28;20403;-62
2024/01/27 09:23:47;;;;;;;22.63;6.03;;;4.80;99.90;;;;;;4962422;28;20043;-62
2024/01/27 09:26:15;;;;;;;15.00;5.07;;;4.80;99.90;;;;;;4969308;28;20031;-62
2024/01/27 09:28:45;;;;;;;21.73;5.20;;;;;;;;;;4967991;28;20407;-62
2024/01/27 09:31:11;;;;;;;22.40;5.57;;;;;;;;;;4961001;28;20047;-62
2024/01/27 09:33:37;;;;;;;13.50;4.80;;;;;;;;;;4947479;28;20095;-62
2024/01/27 09:36:04;;;;;;;26.73;7.47;;;5.20;99.90;;;;;;4962691;28;20038;-62
2024/01/27 09:38:30;;;;;;;23.25;5.90;;;;;;;;;;4965470;28;20096;-62
2024/01/27 09:40:56;;;;;;;24.73;6.30;;;5.20;99.90;;;;;;4966507;28;20039;-62
2024/01/27 09:43:23;;;;;;;19.95;4.95;;;5.20;99.90;;;;;;4966017;28;20043;-61
2024/01/27 09:45:49;;;;;;;14.90;4.93;;;;;;;;;;4964291;28;20058;-61
2024/01/27 09:48:15;;;;;;;17.98;5.30;;;;;;;;;;4956908;28;20125;-62
2024/01/27 09:50:42;;;;;;;23.23;5.60;;;;;;;;;;4967422;28;20109;-61
2024/01/27 09:53:09;;;;;;;24.83;5.85;;;;;;;;;;4964866;28;20316;-61
2024/01/27 09:55:35;;;;;;;22.80;5.38;;;5.50;99.90;;;;;;4966739;28;20499;-61
2024/01/27 09:58:01;;;;;;;17.80;5.13;;;;;;;;;;4974215;28;20043;-61
2024/01/27 10:00:27;;;;;;;23.40;7.38;;;;;;;;;;4969525;28;20566;-62
2024/01/27 10:02:55;;;;;;;21.00;7.47;;;;;;;;;;4966585;28;20414;-61
2024/01/27 10:05:21;;;;;;;17.23;5.53;;;;;;;;;;4972817;28;20466;-61
2024/01/27 10:07:46;;;;;;;17.50;6.07;;;5.80;99.90;;;;;;4973910;28;20051;-60
2024/01/27 10:10:12;;;;;;;22.52;6.15;;;;;;;;;;4974648;28;20093;-61
2024/01/27 10:12:41;;;;;;;17.40;4.78;;;;;;;;;;4975031;28;20034;-61
2024/01/27 10:15:18;;;;;;;24.65;5.18;;;;;;;;;;4972002;28;20542;-61
2024/01/27 10:17:44;;;;;;;19.08;6.00;;;;;;;;;;4970753;28;20106;-61
2024/01/27 10:20:15;;;;;;;16.55;5.53;;;5.80;99.90;;;;;;4975006;28;20046;-61
2024/01/27 10:22:41;;;;;;;14.82;4.88;;;;;;;;;;4969784;28;20444;-62
2024/01/27 10:25:09;;;;;;;19.50;5.93;;;;;;;;;;4972471;28;20041;-61
2024/01/27 10:27:35;;;;;;;17.13;4.82;;;;;;;;;;4973921;28;20080;-62
2024/01/27 10:30:02;;;;;;;17.55;5.57;;;;;;;;;;4952728;28;20498;-61
2024/01/27 10:32:28;;;;;;;17.20;5.43;;;;;;;;;;4974551;28;20061;-61
2024/01/27 10:35:03;;;;;;;26.13;5.50;;;;;;;;;;4967004;28;20047;-61
2024/01/27 10:37:29;;;;;;;22.88;5.43;;;;;;;;;;4970343;28;20658;-62
2024/01/27 10:40:07;;;;;;;18.95;5.22;;;;;;;;;;4970781;28;20125;-62
2024/01/27 10:42:34;;;;;;;18.65;5.53;;;;;;;;;;4969693;28;20363;-61
2024/01/27 10:45:00;;;;;;;26.45;6.22;;;;;;;;;;4972349;28;20051;-61
2024/01/27 10:47:30;;;;;;;22.08;5.10;;;;;;;;;;4971801;28;20101;-61
2024/01/27 10:49:57;;;;;;;20.02;4.95;;;;;;;;;;4971886;28;20372;-61
2024/01/27 10:52:28;;;;;;;18.77;5.50;;;;;;;;;;4964779;28;20043;-61
2024/01/27 10:54:55;;;;;;;18.88;5.63;;;;;;;;;;4973710;28;20050;-61
2024/01/27 10:57:21;;;;;;;19.35;4.65;;;;;;;;;;4973210;28;20093;-61
2024/01/27 10:59:49;;;;;;;22.48;6.93;;;;;;;;;;4967739;28;20589;-62
2024/01/27 11:02:15;;;;;;;17.25;5.30;;;;;;;;;;4973715;28;20046;-62
2024/01/27 11:04:42;;;;;;;33.25;6.90;;;;;;;;;;4974760;28;20506;-61
2024/01/27 11:07:09;;;;;;;19.17;4.90;;;;;;;;;;4955072;28;20720;-62
2024/01/27 11:09:36;;;;;;;21.35;6.03;;;;;;;;;;4968883;28;20562;-62
2024/01/27 11:12:02;;;;;;;17.83;4.80;;;;;;;;;;4978948;28;20041;-62
2024/01/27 11:14:29;;;;;;;18.50;4.97;;;;;;;;;;4964869;28;20499;-61
2024/01/27 11:16:56;;;;;;;20.20;5.70;;;;;;;;;;4969378;28;20039;-61
2024/01/27 11:19:22;;;;;;;24.33;5.32;;;7.50;94.30;;;;;;4967330;28;20031;-62
2024/01/27 11:21:48;;;;;;;20.63;4.55;;;;;;;;;;4965287;28;20045;-61
2024/01/27 11:24:17;;;;;;;15.10;3.85;;;7.10;50.60;;;;;;4966950;28;20130;-61
2024/01/27 11:26:44;;;;;;;33.03;7.00;;;;;;;;;;4972827;28;20035;-61
2024/01/27 11:29:19;;;;;;;20.45;4.88;;;;;;;;;;4972505;28;20042;-61
2024/01/27 11:31:45;;;;;;;13.32;4.22;;;7.70;1.00;;;;;;4969375;28;20557;-62
2024/01/27 11:34:12;;;;;;;16.08;4.03;;;;;;;;;;4970799;28;20406;-61
2024/01/27 11:36:38;;;;;;;12.95;3.95;;;;;;;;;;4971835;28;20047;-62
2024/01/27 11:39:04;;;;;;;19.85;4.10;;;;;;;;;;4973591;28;20467;-61
2024/01/27 11:41:30;;;;;;;26.23;4.00;;;;;;;;;;4972656;28;20039;-62
2024/01/27 11:43:59;;;;;;;14.07;4.15;;;7.40;1.00;;;;;;4972571;28;20462;-62
2024/01/27 11:46:25;;;;;;;16.77;4.57;;;7.80;1.00;;;;;;4972639;28;20070;-62
2024/01/27 11:48:51;;;;;;;13.93;4.75;;;;;;;;;;4972075;28;20042;-62
2024/01/27 11:51:19;;;;;;;17.42;4.75;;;7.90;1.00;;;;;;4972038;28;20043;-62
2024/01/27 11:53:46;;;;;;;17.60;3.90;;;;;;;;;;4967914;28;20388;-62
2024/01/27 11:56:13;;;;;;;16.42;3.88;;;;;;;;;;4972315;28;20079;-62
2024/01/27 11:58:46;;;;;;;20.48;3.78;;;;;;;;;;4967633;28;20051;-62
2024/01/27 12:01:12;;;;;;;14.73;4.43;;;;;;;;;;4971076;28;20039;-62
2024/01/27 12:03:38;;;;;;;20.88;4.43;;;;;;;;;;4971759;28;20110;-61
2024/01/27 12:06:05;;;;;;;24.52;5.22;;;;;;;;;;4972192;28;20424;-62
2024/01/27 12:08:31;;;;;;;15.77;3.85;;;8.40;1.00;;;;;;4967018;28;20578;-62
2024/01/27 12:10:57;;;;;;;16.85;4.13;;;8.50;1.00;;;;;;4972272;28;20113;-62
2024/01/27 12:13:23;;;;;;;15.40;4.20;;;;;;;;;;4972978;28;20122;-62
2024/01/27 12:15:49;;;;;;;19.52;4.65;;;;;;;;;;4977469;28;20039;-63
2024/01/27 12:18:15;;;;;;;15.77;4.30;;;;;;;;;;4975913;28;20548;-62
2024/01/27 12:20:41;;;;;;;15.55;3.90;;;;;;;;;;4972143;28;20081;-62
2024/01/27 12:23:08;;;;;;;18.23;4.53;;;;;;;;;;4969278;28;20070;-62
2024/01/27 12:25:34;;;;;;;20.75;4.38;;;;;;;;;;4971888;28;20069;-62
2024/01/27 12:28:04;;;;;;;22.33;5.82;;;;;;;;;;4971914;28;20054;-62
2024/01/27 12:30:33;;;;;;;15.48;3.92;;;;;;;;;;4963692;28;20035;-62
2024/01/27 12:32:59;;;;;;;15.45;3.88;;;;;;;;;;4968223;28;20132;-62
2024/01/27 12:35:26;;;;;;;17.70;3.72;;;;;;;;;;4965588;28;20031;-61
2024/01/27 12:37:53;;;;;;;20.25;4.90;;;;;;;;;;4984027;23;20046;-64
2024/01/27 12:40:20;;;;;;;16.30;4.70;;;;;;;;;;4965669;28;20050;-64
2024/01/27 12:42:46;;;;;;;12.88;3.80;;;;;;;;;;4958141;28;20176;-67
2024/01/27 12:45:12;;;;;;;24.40;5.80;;;;;;;;;;4967271;28;20550;-65
2024/01/27 12:47:39;;;;;;;15.98;3.95;;;;;;;;;;4967404;28;20506;-65
2024/01/27 12:50:06;;;;;;;14.57;5.65;;;;;;;;;;4965295;28;20117;-65
2024/01/27 12:52:32;;;;;;;17.92;4.10;;;14.40;99.90;;;;;;4963222;28;20041;-65
2024/01/27 12:54:58;;;;;;;16.48;3.97;;;;;;;;;;4965149;28;20047;-65
2024/01/27 12:57:24;;;;;;;19.23;3.55;;;15.70;99.90;;;;;;4968772;28;20533;-65
2024/01/27 12:59:50;;;;;;;16.38;4.35;;;;;;;;;;4949328;28;20054;-65
2024/01/27 13:02:16;;;;;;;17.52;4.15;;;;;;;;;;4960049;28;20042;-65
2024/01/27 13:04:43;;;;;;;19.98;4.00;;;;;;;;;;4971172;28;20133;-65
2024/01/27 13:07:09;;;;;;;18.58;3.78;;;;;;;;;;4966384;28;20122;-65
2024/01/27 13:09:36;;;;;;;14.70;3.30;;;15.70;46.40;;;;;;4969549;28;20038;-65
2024/01/27 13:12:02;;;;;;;11.30;3.15;;;;;;;;;;4966753;28;20039;-66
2024/01/27 13:14:29;;;;;;;17.95;3.85;;;;;;;;;;4968248;28;20043;-66
2024/01/27 13:16:56;;;;;;;18.90;4.28;;;;;;;;;;4969332;28;20035;-65
2024/01/27 13:19:22;;;;;;;17.83;3.47;;;15.90;35.50;;;;;;4969189;28;20050;-66
2024/01/27 13:21:48;;;;;;;15.70;3.25;;;;;;;;;;4968753;28;20047;-65
2024/01/27 13:24:14;;;;;;;20.65;4.60;;;;;;;;;;4969244;28;20658;-65
2024/01/27 13:26:40;;;;;;;14.20;3.63;;;15.90;1.00;;;;;;4966348;28;20047;-65
2024/01/27 13:29:06;;;;;;;16.10;3.88;;;15.90;1.00;;;;;;4947116;28;20039;-66
2024/01/27 13:31:32;;;;;;;22.95;5.00;;;;;;;;;;4963963;28;20035;-67
2024/01/27 13:33:59;;;;;;;16.35;3.78;;;;;;;;;;4966694;28;20455;-66
2024/01/27 13:36:28;;;;;;;15.32;3.42;;;;;;;;;;4966973;28;20118;-67
2024/01/27 13:38:53;;;;;;;12.88;3.30;;;15.50;1.00;;;;;;4969565;28;20038;-66
2024/01/27 13:41:19;;;;;;;13.98;2.90;;;15.60;1.00;;;;;;4966946;28;20069;-66
2024/01/27 13:43:45;;;;;;;17.27;3.50;;;15.10;1.00;;;;;;4949439;28;20049;-66
2024/01/27 13:46:11;;;;;;;15.88;3.78;;;15.00;1.00;;;;;;4966053;28;20456;-65
2024/01/27 13:48:37;;;;;;;16.30;3.72;;;14.90;1.00;;;;;;4967522;28;20038;-66
2024/01/27 13:51:03;;;;;;;16.55;3.78;;;14.90;1.00;;;;;;4964114;28;20031;-67
2024/01/27 13:53:29;;;;;;;19.65;3.80;;;14.10;1.00;;;;;;4965371;28;20112;-67
2024/01/27 13:55:55;;;;;;;17.10;3.65;;;14.50;1.00;;;;;;4964356;28;20032;-67
2024/01/27 13:58:21;;;;;;;14.90;3.45;;;;;;;;;;4966882;28;20161;-67
2024/01/27 14:00:47;;;;;;;14.70;3.28;;;14.50;1.00;;;;;;4963669;28;20519;-67